Time;durP1;ratioP1;P1;durP2;ratioP2;P2;SDS_P1;SDS_P2;PMS_P1;PMS_P2;Temp;Humidity;BMP_temperature;BMP_pressure;BME280_temperature;BME280_humidity;BME280_pressure;Samples;Min_cycle;Max_cycle;Signal;HPM_P1;HPM_P2
2021/06/25 00:02:15;;;;;;;5.53;3.10;;;;;;;13.51;83.65;101804.47;5014986;28;20022;-82
2021/06/25 00:04:40;;;;;;;7.65;3.30;;;;;;;13.52;82.99;101804.31;5016772;28;20041;-81
2021/06/25 00:07:06;;;;;;;7.03;2.78;;;;;;;13.55;82.10;101801.41;5016659;28;20479;-83
2021/06/25 00:09:31;;;;;;;9.23;2.90;;;;;;;13.49;82.47;101798.50;5033757;28;20029;-85
2021/06/25 00:11:57;;;;;;;5.50;2.70;;;;;;;13.59;82.08;101794.06;5016796;28;20033;-84
2021/06/25 00:14:23;;;;;;;8.02;3.30;;;;;;;13.61;80.28;101790.28;5017526;28;20072;-81
2021/06/25 00:16:50;;;;;;;4.28;2.90;;;;;;;13.57;82.21;101780.19;5032993;28;20040;-82
2021/06/25 00:19:16;;;;;;;6.22;3.20;;;;;;;13.52;81.35;101790.31;5000093;28;20101;-82
2021/06/25 00:21:42;;;;;;;3.97;2.88;;;;;;;13.48;81.69;101784.47;4990691;28;20033;-82
2021/06/25 00:24:07;;;;;;;4.50;2.85;;;;;;;13.46;82.59;101782.97;5021130;28;20048;-82
2021/06/25 00:26:33;;;;;;;5.70;3.28;;;;;;;13.45;84.20;101795.31;4998820;28;20034;-82
2021/06/25 00:28:59;;;;;;;9.45;3.20;;;;;;;13.35;83.11;101792.66;5022517;28;20072;-81
2021/06/25 00:31:24;;;;;;;7.75;3.20;;;;;;;13.32;84.00;101795.59;5015737;28;20091;-81
2021/06/25 00:33:50;;;;;;;7.75;3.20;;;;;;;13.27;83.82;101789.88;5020210;28;20045;-81
2021/06/25 00:36:15;;;;;;;6.93;3.17;;;;;;;13.40;83.80;101803.63;5016424;28;20040;-81
2021/06/25 00:38:41;;;;;;;7.28;3.13;;;;;;;13.35;83.04;101805.84;5016626;28;20117;-82
2021/06/25 00:41:06;;;;;;;9.07;4.00;;;;;;;13.33;83.43;101802.50;5002814;28;20415;-84
2021/06/25 00:43:32;;;;;;;6.90;3.50;;;;;;;13.40;81.41;101797.53;5020494;28;20029;-84
2021/06/25 00:45:58;;;;;;;5.85;3.63;;;;;;;13.44;81.63;101805.00;5011891;28;20048;-82
2021/06/25 00:48:23;;;;;;;8.52;3.42;;;;;;;13.56;81.07;101804.88;5003296;28;20041;-84
2021/06/25 00:50:49;;;;;;;5.80;3.50;;;;;;;13.49;80.23;101798.50;5011708;28;20172;-83
2021/06/25 00:53:14;;;;;;;7.95;3.55;;;;;;;13.56;80.96;101807.50;5002844;28;20073;-83
2021/06/25 00:55:43;;;;;;;6.63;3.05;;;;;;;13.43;80.75;101794.63;4996268;28;20546;-81
2021/06/25 00:58:14;;;;;;;6.63;3.92;;;;;;;13.50;81.57;101808.06;5025457;28;20554;-84
2021/06/25 01:00:40;;;;;;;4.38;3.40;;;;;;;13.46;81.36;101804.88;5015399;28;20143;-82
2021/06/25 01:03:06;;;;;;;7.55;3.88;;;;;;;13.47;82.97;101810.97;5017063;28;20593;-83
2021/06/25 01:05:32;;;;;;;6.03;3.72;;;;;;;13.48;83.11;101800.28;5037048;28;20570;-84
2021/06/25 01:07:58;;;;;;;8.65;3.90;;;;;;;13.50;81.93;101803.63;5024023;28;20116;-84
2021/06/25 01:10:24;;;;;;;8.80;4.10;;;;;;;13.36;84.66;101804.88;4984362;28;20040;-81
2021/06/25 01:12:50;;;;;;;8.18;4.80;;;;;;;13.40;81.76;101808.91;5038329;28;20026;-81
2021/06/25 01:15:16;;;;;;;8.30;4.40;;;;;;;13.49;82.52;101809.88;5021150;28;20033;-82
2021/06/25 01:17:43;;;;;;;9.60;4.95;;;;;;;13.49;81.75;101814.31;5002159;28;20061;-80
2021/06/25 01:20:22;;;;;;;8.93;5.55;;;;;;;13.51;82.47;101810.56;4998383;28;20033;-82
2021/06/25 01:22:48;;;;;;;10.95;4.00;;;;;;;13.36;83.48;101812.78;5018570;28;20030;-83
2021/06/25 01:25:21;;;;;;;11.30;4.22;;;;;;;13.43;84.11;101813.91;5014856;28;20038;-84
2021/06/25 01:27:48;;;;;;;9.93;4.50;;;;;;;13.39;84.84;101815.16;5015902;28;20038;-84
2021/06/25 01:30:24;;;;;;;6.82;4.75;;;;;;;13.36;84.01;101812.78;5015190;28;20036;-84
2021/06/25 01:32:50;;;;;;;6.03;4.45;;;;;;;13.23;83.53;101809.56;4994797;28;20065;-84
2021/06/25 01:35:16;;;;;;;10.18;4.47;;;;;;;13.31;84.22;101814.16;5013957;28;20068;-84
2021/06/25 01:37:42;;;;;;;7.57;4.93;;;;;;;13.17;84.84;101796.94;5037022;28;20033;-83
2021/06/25 01:40:10;;;;;;;11.70;5.88;;;;;;;13.24;84.27;101800.66;5015680;28;20064;-83
2021/06/25 01:42:39;;;;;;;10.20;6.15;;;;;;;13.31;84.14;101801.81;4984472;28;20127;-84
2021/06/25 01:45:12;;;;;;;10.02;5.30;;;;;;;13.32;84.65;101800.03;4990928;28;20049;-80
2021/06/25 01:47:39;;;;;;;13.20;5.18;;;;;;;13.24;85.17;101798.91;5018715;28;20044;-83
2021/06/25 01:50:08;;;;;;;10.43;5.82;;;;;;;13.12;85.80;101799.97;5014282;28;20033;-82
2021/06/25 01:52:33;;;;;;;6.55;4.88;;;;;;;12.96;85.57;101790.00;5021653;28;20527;-81
2021/06/25 01:54:59;;;;;;;7.60;5.53;;;;;;;12.95;86.45;101793.59;5027492;28;20120;-83
2021/06/25 01:57:26;;;;;;;10.18;6.03;;;;;;;13.10;85.52;101801.91;4997712;28;20069;-83
2021/06/25 01:59:52;;;;;;;6.15;5.38;;;;;;;13.05;86.27;101802.34;5003630;28;20068;-83
2021/06/25 02:02:17;;;;;;;9.57;6.38;;;;;;;12.94;86.43;101809.50;5015523;28;20072;-82
2021/06/25 02:04:43;;;;;;;10.50;5.72;;;;;;;12.79;86.17;101803.78;5001122;28;20189;-81
2021/06/25 02:07:08;;;;;;;10.63;6.47;;;;;;;12.78;86.70;101794.25;4998595;28;20827;-79
2021/06/25 02:09:34;;;;;;;14.35;6.53;;;;;;;12.55;88.43;101786.56;4999580;28;20345;-81
2021/06/25 02:12:00;;;;;;;10.30;6.75;;;;;;;12.42;88.60;101793.88;5013860;28;20076;-81
2021/06/25 02:14:25;;;;;;;9.30;6.25;;;;;;;12.38;89.21;101793.31;5003038;28;20488;-83
2021/06/25 02:16:51;;;;;;;14.45;7.53;;;;;;;12.24;89.23;101791.88;4986479;28;20095;-83
2021/06/25 02:19:17;;;;;;;12.43;7.32;;;;;;;12.17;89.71;101792.53;5013162;28;20117;-80
2021/06/25 02:21:42;;;;;;;14.20;7.20;;;;;;;12.13;90.57;101789.31;5028978;28;20033;-80
2021/06/25 02:24:08;;;;;;;12.68;7.20;;;;;;;12.04;90.61;101785.66;5009520;28;20550;-82
2021/06/25 02:26:33;;;;;;;11.93;7.28;;;;;;;11.90;90.83;101772.84;5001349;28;20036;-82
2021/06/25 02:28:59;;;;;;;13.13;7.85;;;;;;;11.88;91.28;101780.00;5031818;28;20098;-83
2021/06/25 02:31:25;;;;;;;10.88;7.60;;;;;;;11.88;91.42;101780.88;4981196;28;20029;-85
2021/06/25 02:33:50;;;;;;;13.68;7.97;;;;;;;11.75;91.96;101785.47;4997838;28;20029;-83
2021/06/25 02:36:16;;;;;;;12.32;8.20;;;;;;;11.66;92.14;101778.38;5016092;28;20109;-82
2021/06/25 02:38:41;;;;;;;12.10;9.50;;;;;;;11.60;92.89;101784.97;5014607;28;20040;-81
2021/06/25 02:41:07;;;;;;;14.15;8.55;;;;;;;11.55;92.83;101781.88;4995314;28;20088;-83
2021/06/25 02:43:33;;;;;;;11.88;8.75;;;;;;;11.64;92.80;101788.16;5022653;28;20045;-84
2021/06/25 02:45:59;;;;;;;17.08;9.25;;;;;;;11.60;93.29;101781.50;5020006;28;20040;-84
2021/06/25 02:48:24;;;;;;;17.38;8.75;;;;;;;11.52;93.16;101781.31;5014415;28;20037;-83
2021/06/25 02:50:50;;;;;;;13.25;9.43;;;;;;;11.47;93.05;101768.53;5036234;28;20045;-85
2021/06/25 02:53:15;;;;;;;19.45;9.18;;;;;;;11.48;93.34;101775.47;5013967;28;20045;-83
2021/06/25 02:55:50;;;;;;;16.40;10.43;;;;;;;11.51;93.74;101764.72;5014139;28;20033;-82
2021/06/25 02:58:21;;;;;;;15.27;10.10;;;;;;;11.40;94.13;101755.09;4998659;28;20550;-82
2021/06/25 03:00:47;;;;;;;12.43;10.07;;;;;;;11.43;94.47;101764.50;4996965;28;20046;-82
2021/06/25 03:03:13;;;;;;;18.20;10.88;;;;;;;11.44;94.37;101759.13;4995625;28;20075;-82
2021/06/25 03:05:39;;;;;;;15.15;10.35;;;;;;;11.48;94.67;101751.81;5013664;28;20053;-84
2021/06/25 03:08:05;;;;;;;12.15;9.73;;;;;;;11.48;94.41;101747.38;4993326;28;20663;-82
2021/06/25 03:10:30;;;;;;;14.35;10.57;;;;;;;11.48;94.21;101741.31;4980553;28;20032;-82
2021/06/25 03:12:56;;;;;;;17.92;10.18;;;;;;;11.48;94.79;101749.19;4996805;28;20041;-82
2021/06/25 03:15:22;;;;;;;16.48;9.80;;;;;;;11.44;94.42;101739.91;5013480;28;20762;-82
2021/06/25 03:17:47;;;;;;;16.05;10.23;;;;;;;11.44;94.76;101739.91;5012369;28;20116;-82
2021/06/25 03:20:14;;;;;;;15.63;10.18;;;;;;;11.46;94.72;101732.72;5012871;28;20133;-82
2021/06/25 03:22:40;;;;;;;16.15;10.20;;;;;;;11.49;94.89;101733.31;4997449;28;20498;-82
2021/06/25 03:25:07;;;;;;;14.60;9.52;;;;;;;11.53;94.89;101733.88;4996926;28;20029;-81
2021/06/25 03:27:33;;;;;;;14.50;9.27;;;;;;;11.53;95.15;101730.41;4988298;28;20035;-81
2021/06/25 03:29:58;;;;;;;13.20;8.48;;;;;;;11.58;95.33;101733.50;4990651;28;20037;-80
2021/06/25 03:32:24;;;;;;;15.18;9.00;;;;;;;11.65;95.56;101729.38;5030105;28;20029;-83
2021/06/25 03:34:49;;;;;;;10.38;8.30;;;;;;;11.71;95.33;101730.66;5011088;28;20033;-84
2021/06/25 03:37:15;;;;;;;14.77;9.15;;;;;;;11.73;95.45;101732.19;4997803;28;20107;-83
2021/06/25 03:39:40;;;;;;;10.85;8.38;;;;;;;11.71;95.65;101733.28;5023449;28;20550;-85
2021/06/25 03:42:06;;;;;;;14.60;9.82;;;;;;;11.80;95.65;101743.84;5015227;28;20072;-82
2021/06/25 03:44:32;;;;;;;13.52;9.35;;;;;;;11.91;95.83;101747.41;5012923;28;20037;-81
2021/06/25 03:46:57;;;;;;;12.18;8.38;;;;;;;11.93;95.50;101740.22;4994863;28;20041;-81
2021/06/25 03:49:24;;;;;;;15.90;8.85;;;;;;;11.91;95.37;101740.34;4994117;28;20036;-83
2021/06/25 03:51:50;;;;;;;12.93;8.35;;;;;;;11.95;95.68;101747.00;4979478;28;20049;-80
2021/06/25 03:54:15;;;;;;;13.63;8.65;;;;;;;11.98;95.16;101741.50;5002977;28;20033;-83
2021/06/25 03:56:41;;;;;;;11.73;7.88;;;;;;;12.00;95.11;101744.00;5002589;28;20048;-84
2021/06/25 03:59:07;;;;;;;12.18;7.72;;;;;;;12.01;94.73;101746.47;4993876;28;20037;-81
2021/06/25 04:01:32;;;;;;;12.05;8.38;;;;;;;11.96;95.46;101739.94;5040141;28;20021;-81
2021/06/25 04:03:58;;;;;;;14.05;8.30;;;;;;;11.97;95.71;101752.97;5017698;28;20048;-84
2021/06/25 04:06:23;;;;;;;9.95;7.32;;;;;;;11.93;95.72;101741.06;4984599;28;20479;-84
2021/06/25 04:08:50;;;;;;;14.13;8.85;;;;;;;11.92;95.99;101746.44;5023206;28;20041;-84
2021/06/25 04:11:17;;;;;;;11.48;7.97;;;;;;;11.89;95.74;101747.50;4983625;28;20116;-81
2021/06/25 04:13:43;;;;;;;12.93;7.97;;;;;;;11.92;95.74;101754.31;5000012;28;20041;-81
2021/06/25 04:16:09;;;;;;;17.02;7.60;;;;;;;11.94;95.46;101755.03;5003145;28;20518;-81
2021/06/25 04:18:34;;;;;;;14.70;8.15;;;;;;;11.94;96.19;101755.03;5005082;28;20036;-83
2021/06/25 04:21:01;;;;;;;12.38;8.05;;;;;;;11.99;95.99;101755.47;5003578;28;20037;-82
2021/06/25 04:23:26;;;;;;;13.43;7.55;;;;;;;12.01;95.21;101756.16;5033109;28;20041;-83
2021/06/25 04:25:52;;;;;;;12.15;7.72;;;;;;;12.01;95.41;101748.28;5032677;28;20443;-85
2021/06/25 04:28:18;;;;;;;11.40;7.72;;;;;;;11.98;95.76;101743.28;5004962;28;20065;-84
2021/06/25 04:30:44;;;;;;;11.50;7.53;;;;;;;12.04;95.62;101742.78;5014583;28;20459;-83
2021/06/25 04:33:13;;;;;;;12.98;8.02;;;;;;;12.05;96.34;101734.75;5001690;28;20865;-82
2021/06/25 04:35:40;;;;;;;16.55;8.13;;;;;;;12.05;96.44;101732.13;5015741;28;20111;-83
2021/06/25 04:38:06;;;;;;;10.38;7.97;;;;;;;12.07;96.31;101732.81;5002135;28;20756;-85
2021/06/25 04:40:33;;;;;;;14.70;8.30;;;;;;;12.22;95.83;101735.06;5001336;28;20083;-83
2021/06/25 04:42:59;;;;;;;17.45;8.05;;;;;;;12.29;95.53;101736.22;5001482;28;20034;-84
2021/06/25 04:45:25;;;;;;;14.00;7.97;;;;;;;12.29;95.59;101728.31;5017701;28;20033;-82
2021/06/25 04:47:53;;;;;;;12.55;7.45;;;;;;;12.37;95.54;101722.38;5000328;28;20051;-84
2021/06/25 04:50:21;;;;;;;15.57;9.32;;;;;;;12.45;95.10;101719.91;5008368;28;20037;-83
2021/06/25 04:52:47;;;;;;;14.95;8.88;;;;;;;12.54;94.42;101713.84;5004229;28;20041;-80
2021/06/25 04:55:12;;;;;;;14.30;9.35;;;;;;;12.68;94.39;101714.41;5015510;28;20041;-83
2021/06/25 04:57:38;;;;;;;13.93;8.88;;;;;;;12.76;94.46;101710.13;5020118;28;20037;-81
2021/06/25 05:00:08;;;;;;;15.10;9.38;;;;;;;12.78;93.41;101710.81;5000333;28;20049;-84
2021/06/25 05:02:33;;;;;;;20.60;9.73;;;;;;;12.89;91.97;101709.88;5020640;28;20064;-83
2021/06/25 05:04:59;;;;;;;14.57;9.30;;;;;;;12.89;91.55;101704.59;5016824;28;20108;-81
2021/06/25 05:07:24;;;;;;;15.55;9.85;;;;;;;13.04;91.54;101716.38;5033754;28;20041;-84
2021/06/25 05:09:51;;;;;;;17.13;9.85;;;;;;;13.10;90.71;101712.38;5005416;28;20088;-84
2021/06/25 05:12:17;;;;;;;15.05;9.27;;;;;;;13.12;91.37;101705.16;5035208;28;20033;-84
2021/06/25 05:14:42;;;;;;;15.40;9.95;;;;;;;13.20;90.18;101723.75;5019509;28;20112;-80
2021/06/25 05:17:08;;;;;;;17.15;9.85;;;;;;;13.27;91.52;101718.72;5001145;28;20041;-83
2021/06/25 05:19:33;;;;;;;16.15;9.00;;;;;;;13.35;91.70;101726.78;5020113;28;20113;-85
2021/06/25 05:21:59;;;;;;;14.45;9.35;;;;;;;13.37;91.84;101726.66;5019267;28;20029;-83
2021/06/25 05:24:24;;;;;;;18.20;9.95;;;;;;;13.41;90.50;101722.75;5007094;28;20040;-82
2021/06/25 05:26:50;;;;;;;16.90;10.27;;;;;;;13.46;89.70;101733.72;5016106;28;20029;-84
2021/06/25 05:29:16;;;;;;;15.85;10.02;;;;;;;13.56;89.27;101734.53;5024318;28;20038;-84
2021/06/25 05:31:41;;;;;;;15.85;10.20;;;;;;;13.68;87.76;101737.03;4999208;28;20030;-85
2021/06/25 05:34:07;;;;;;;18.50;10.52;;;;;;;13.73;87.38;101735.63;5016796;28;20064;-84
2021/06/25 05:36:33;;;;;;;19.65;10.00;;;;;;;13.80;87.48;101736.69;5035184;28;20392;-84
2021/06/25 05:38:58;;;;;;;20.15;10.60;;;;;;;13.88;85.98;101738.63;5001432;28;20041;-84
2021/06/25 05:41:24;;;;;;;19.90;9.88;;;;;;;13.97;86.34;101740.38;4998455;28;20037;-83
2021/06/25 05:43:49;;;;;;;19.65;10.30;;;;;;;14.06;86.06;101741.31;4975923;28;20041;-83
2021/06/25 05:46:15;;;;;;;18.50;10.05;;;;;;;14.08;84.69;101720.91;5017121;28;20554;-85
2021/06/25 05:48:41;;;;;;;26.92;10.88;;;;;;;14.14;83.40;101737.97;5006326;28;20029;-83
2021/06/25 05:51:06;;;;;;;20.17;10.75;;;;;;;14.12;82.59;101742.56;5016321;28;20065;-84
2021/06/25 05:53:32;;;;;;;18.65;10.05;;;;;;;14.28;83.96;101747.19;5017227;28;20037;-84
2021/06/25 05:55:58;;;;;;;19.10;9.90;;;;;;;14.34;83.61;101750.09;5000075;28;20029;-86
2021/06/25 05:58:24;;;;;;;17.13;9.98;;;;;;;14.43;84.21;101756.31;5033680;28;20439;-84
2021/06/25 06:00:50;;;;;;;19.20;9.77;;;;;;;14.53;81.84;101749.16;5015676;28;20033;-83
2021/06/25 06:03:15;;;;;;;13.65;8.60;;;;;;;14.56;82.75;101745.38;5021694;28;20021;-84
2021/06/25 06:05:42;;;;;;;12.23;8.07;;;;;;;14.56;82.33;101742.72;4996864;28;20041;-83
2021/06/25 06:08:08;;;;;;;13.07;7.72;;;;;;;14.50;83.84;101743.34;4998548;28;20037;-83
2021/06/25 06:10:34;;;;;;;13.73;7.18;;;;;;;14.41;78.91;101753.81;5015752;28;20049;-85
2021/06/25 06:13:00;;;;;;;10.55;5.85;;;;;;;14.49;78.28;101757.53;5000001;28;20034;-84
2021/06/25 06:15:25;;;;;;;10.02;6.28;;;;;;;14.58;78.12;101761.97;5016770;28;20045;-81
2021/06/25 06:17:51;;;;;;;11.30;6.50;;;;;;;14.69;78.34;101760.91;5015103;28;20481;-86
2021/06/25 06:20:23;;;;;;;10.02;6.10;;;;;;;14.72;76.99;101763.25;4982192;28;20500;-84
2021/06/25 06:31:20;;;;;;;14.50;7.20;;;;;;;15.57;76.35;101775.06;5013506;28;20300;-80
2021/06/25 06:33:49;;;;;;;10.10;6.03;;;;;;;15.72;75.14;101771.88;4991537;28;20438;-84
2021/06/25 06:36:28;;;;;;;9.95;5.85;;;;;;;15.94;73.37;101776.69;5004998;28;20040;-83
2021/06/25 06:38:59;;;;;;;11.80;6.22;;;;;;;15.90;71.51;101779.81;5009337;28;20113;-84
2021/06/25 06:41:25;;;;;;;10.65;6.07;;;;;;;15.94;71.92;101779.31;5015712;28;20036;-83
2021/06/25 06:43:51;;;;;;;8.73;6.18;;;;;;;16.24;70.82;101781.63;5027009;28;20029;-82
2021/06/25 06:46:17;;;;;;;9.57;5.20;;;;;;;16.34;70.95;101783.16;4986945;28;20458;-85
2021/06/25 06:48:46;;;;;;;6.35;4.65;;;;;;;16.43;69.15;101785.84;4999641;28;20111;-84
2021/06/25 06:51:12;;;;;;;10.13;4.75;;;;;;;16.48;69.92;101778.25;5022408;28;20546;-83
2021/06/25 06:53:42;;;;;;;5.90;4.45;;;;;;;16.42;68.24;101779.69;4998655;28;20412;-84
2021/06/25 06:56:12;;;;;;;10.68;4.95;;;;;;;16.37;67.93;101767.94;5014416;28;20120;-87
2021/06/25 06:58:39;;;;;;;9.02;5.00;;;;;;;16.33;66.60;101770.91;5011942;28;20473;-85
2021/06/25 07:01:05;;;;;;;10.20;4.97;;;;;;;16.35;68.13;101778.72;4979909;28;20073;-88
2021/06/25 07:03:31;;;;;;;7.25;5.10;;;;;;;16.37;67.42;101774.09;5022525;28;20120;-88
2021/06/25 07:05:57;;;;;;;15.32;6.18;;;;;;;16.48;67.20;101776.44;4998674;28;20798;-87
2021/06/25 07:08:23;;;;;;;13.82;4.95;;;;;;;16.43;68.05;101777.91;5013912;28;20055;-85
2021/06/25 07:10:48;;;;;;;8.35;4.63;;;;;;;16.59;65.52;101769.19;5006965;28;20460;-84
2021/06/25 07:13:14;;;;;;;8.25;4.75;;;;;;;16.76;64.26;101778.81;5003963;28;20128;-85
2021/06/25 07:15:39;;;;;;;9.18;4.63;;;;;;;16.73;64.25;101773.88;5027817;28;20036;-86
2021/06/25 07:18:05;;;;;;;8.05;4.13;;;;;;;16.79;69.19;101777.69;4998662;28;20501;-86
2021/06/25 07:20:31;;;;;;;6.75;4.80;;;;;;;16.94;66.09;101778.72;5001331;28;20040;-87
2021/06/25 07:22:57;;;;;;;9.55;4.40;;;;;;;17.03;66.19;101785.72;4982877;28;20036;-85
2021/06/25 07:25:23;;;;;;;9.18;4.93;;;;;;;16.96;63.75;101786.53;4996663;28;20033;-86
2021/06/25 07:27:48;;;;;;;8.02;4.18;;;;;;;16.98;62.18;101780.06;4979657;28;20110;-87
2021/06/25 07:30:15;;;;;;;7.28;3.60;;;;;;;17.11;62.63;101776.94;4973061;28;20037;-88
2021/06/25 07:32:40;;;;;;;8.93;4.30;;;;;;;17.11;63.06;101783.06;5014173;28;20033;-89
2021/06/25 07:35:06;;;;;;;9.57;4.32;;;;;;;17.18;63.93;101780.59;5012953;28;20041;-85
2021/06/25 07:37:32;;;;;;;5.82;4.38;;;;;;;17.36;64.02;101782.25;5035682;28;20029;-84
2021/06/25 07:39:57;;;;;;;8.25;4.25;;;;;;;17.35;63.85;101785.88;5035258;28;20659;-87
2021/06/25 07:42:25;;;;;;;9.57;5.18;;;;;;;17.20;63.91;101770.66;5012536;28;20065;-85
2021/06/25 07:44:51;;;;;;;5.57;4.22;;;;;;;17.39;63.25;101777.44;5009791;28;20626;-86
2021/06/25 07:47:17;;;;;;;8.73;4.50;;;;;;;17.47;62.67;101773.94;5018888;28;20037;-84
2021/06/25 07:49:43;;;;;;;5.68;4.03;;;;;;;17.55;62.13;101773.13;5017662;28;20066;-83
2021/06/25 07:52:09;;;;;;;6.65;4.05;;;;;;;17.64;63.10;101774.75;5017933;28;20040;-83
2021/06/25 07:54:34;;;;;;;4.93;3.28;;;;;;;17.61;61.72;101775.09;5019041;28;20041;-83
2021/06/25 07:57:00;;;;;;;7.03;3.40;;;;;;;17.63;64.47;101770.44;5018483;28;20040;-84
2021/06/25 07:59:25;;;;;;;6.95;3.00;;;;;;;17.78;63.31;101778.53;5015219;28;20403;-83
2021/06/25 08:01:52;;;;;;;5.18;3.00;;;;;;;17.99;63.50;101770.91;5014181;28;20053;-86
2021/06/25 08:04:17;;;;;;;6.65;2.78;;;;;;;18.26;65.19;101772.31;5018364;28;20069;-87
2021/06/25 08:06:43;;;;;;;4.85;2.83;;;;;;;18.40;59.66;101775.22;5017790;28;20034;-87
2021/06/25 08:09:09;;;;;;;5.95;2.88;;;;;;;18.61;61.82;101761.34;5006853;28;20129;-82
2021/06/25 08:11:35;;;;;;;6.70;3.03;;;;;;;18.72;57.56;101763.59;5029175;28;20487;-87
2021/06/25 08:14:01;;;;;;;4.00;2.80;;;;;;;18.62;58.07;101766.47;5014240;28;20035;-88
2021/06/25 08:16:26;;;;;;;6.65;3.25;;;;;;;18.23;60.04;101761.19;4979393;28;20038;-85
2021/06/25 08:18:58;;;;;;;9.77;2.75;;;;;;;18.40;60.58;101767.25;5014171;28;20123;-88
2021/06/25 08:21:30;;;;;;;3.85;3.03;;;;;;;18.52;62.62;101759.75;4994684;28;20032;-88
2021/06/25 08:23:56;;;;;;;4.53;2.70;;;;;;;18.58;60.30;101764.38;5036761;28;20596;-86
2021/06/25 08:26:22;;;;;;;4.80;2.97;;;;;;;18.81;56.99;101762.56;5018594;28;20103;-87
2021/06/25 08:28:48;;;;;;;5.05;3.17;;;;;;;18.98;57.08;101759.81;5029830;28;20495;-84
2021/06/25 08:31:15;;;;;;;5.80;2.67;;;;;;;19.14;62.81;101765.03;5012547;28;20038;-87
2021/06/25 08:33:41;;;;;;;4.82;2.95;;;;;;;19.28;57.74;101765.25;5017657;28;20056;-90
2021/06/25 08:36:07;;;;;;;4.65;3.20;;;;;;;19.23;55.17;101765.75;5022205;28;20327;-87
2021/06/25 08:38:33;;;;;;;5.68;3.28;;;;;;;19.16;56.28;101767.50;5002600;28;20037;-87
2021/06/25 08:40:59;;;;;;;6.78;3.45;;;;;;;19.36;56.20;101762.50;5016681;28;20049;-87
2021/06/25 08:43:26;;;;;;;6.13;3.20;;;;;;;19.15;55.93;101763.19;5027139;28;20091;-88
2021/06/25 08:45:52;;;;;;;6.65;3.55;;;;;;;18.91;57.46;101769.50;5001766;28;20033;-86
2021/06/25 08:48:18;;;;;;;5.30;3.60;;;;;;;19.02;57.30;101758.44;5014116;28;20449;-84
2021/06/25 08:50:49;;;;;;;5.82;3.20;;;;;;;19.32;56.25;101754.06;5030571;28;20068;-86
2021/06/25 08:53:15;;;;;;;3.42;3.13;;;;;;;19.39;55.74;101751.50;5023482;28;20045;-88
2021/06/25 08:55:43;;;;;;;3.30;2.40;;;;;;;19.48;61.24;101754.91;4999006;28;20033;-88
2021/06/25 08:58:14;;;;;;;3.58;3.17;;;;;;;19.57;57.56;101754.66;4998793;28;20056;-88
2021/06/25 09:00:40;;;;;;;4.95;3.63;;;;;;;19.44;56.98;101759.78;4997843;28;20046;-89
2021/06/25 09:03:06;;;;;;;4.47;3.13;;;;;;;19.59;57.54;101754.47;5035360;28;20057;-84
2021/06/25 09:05:31;;;;;;;5.43;2.97;;;;;;;19.57;59.05;101753.81;4991914;28;20057;-90
2021/06/25 09:07:58;;;;;;;4.40;3.30;;;;;;;19.51;54.58;101751.91;5014223;28;20065;-84
2021/06/25 09:10:39;;;;;;;5.95;3.35;;;;;;;19.53;56.58;101737.38;5003993;28;20041;-87
2021/06/25 09:13:10;;;;;;;4.93;3.05;;;;;;;19.36;59.58;101742.03;5022123;28;20129;-84
2021/06/25 09:15:37;;;;;;;4.07;3.05;;;;;;;18.99;56.54;101734.91;4984503;28;20025;-86
2021/06/25 09:18:06;;;;;;;5.25;2.80;;;;;;;19.29;58.37;101745.59;5035735;28;20037;-88
2021/06/25 09:20:33;;;;;;;6.28;3.05;;;;;;;19.88;56.90;101751.03;5000887;28;20026;-87
2021/06/25 09:23:00;;;;;;;9.10;2.83;;;;;;;19.94;57.31;101754.81;5032936;28;20043;-84
2021/06/25 09:25:25;;;;;;;6.18;3.05;;;;;;;19.76;56.07;101749.84;5025752;28;20082;-84
2021/06/25 09:27:56;;;;;;;4.57;2.75;;;;;;;19.55;59.18;101751.38;5021510;28;20463;-85
2021/06/25 09:30:23;;;;;;;3.75;2.70;;;;;;;20.08;57.73;101748.66;4999059;28;20034;-83
2021/06/25 09:32:49;;;;;;;4.03;2.88;;;;;;;20.53;55.95;101760.06;5000004;28;20472;-84
2021/06/25 09:35:18;;;;;;;5.57;2.42;;;;;;;21.03;54.65;101754.84;5013475;28;20029;-84
2021/06/25 09:37:47;;;;;;;7.00;4.18;;;;;;;21.03;50.78;101754.84;5013348;28;20448;-88
2021/06/25 09:40:13;;;;;;;4.75;3.05;;;;;;;21.27;51.11;101744.81;5031313;28;20039;-83
2021/06/25 09:42:42;;;;;;;5.65;4.00;;;;;;;21.29;50.47;101750.78;5037597;28;20029;-88
2021/06/25 09:45:11;;;;;;;5.32;3.20;;;;;;;20.67;52.95;101747.72;5016243;28;20060;-83
2021/06/25 09:47:39;;;;;;;3.78;2.88;;;;;;;20.45;56.51;101757.50;5017508;28;20048;-85
2021/06/25 09:50:12;;;;;;;3.03;2.63;;;;;;;20.12;59.01;101762.44;4980327;28;20029;-81
2021/06/25 09:52:49;;;;;;;4.80;3.00;;;;;;;19.95;57.46;101765.28;5033213;28;20037;-81
2021/06/25 09:55:18;;;;;;;4.25;3.10;;;;;;;20.51;54.39;101764.75;5014530;28;20061;-82
2021/06/25 10:03:57;;;;;;;8.15;3.85;;;;;;;20.71;52.41;101756.19;5004856;28;20056;-81
2021/06/25 10:06:24;;;;;;;4.47;3.92;;;;;;;21.08;51.01;101743.59;5030551;28;20115;-78
2021/06/25 10:08:51;;;;;;;6.82;4.43;;;;;;;21.07;52.14;101748.13;4995869;28;20409;-76
2021/06/25 10:11:22;;;;;;;6.55;3.60;;;;;;;21.30;53.35;101749.75;5020605;28;20072;-81
2021/06/25 10:13:51;;;;;;;4.55;3.42;;;;;;;21.01;55.32;101754.22;5018439;28;20123;-81
2021/06/25 10:16:17;;;;;;;3.20;2.72;;;;;;;21.22;57.71;101749.88;4983705;28;20726;-82
2021/06/25 10:18:50;;;;;;;4.13;3.00;;;;;;;21.49;53.29;101750.94;4986624;28;20072;-81
2021/06/25 10:21:20;;;;;;;3.80;3.38;;;;;;;21.08;50.30;101749.78;5021585;28;20037;-85
2021/06/25 10:23:52;;;;;;;4.43;2.80;;;;;;;20.88;54.01;101748.75;5031233;28;20045;-85
2021/06/25 10:26:20;;;;;;;3.45;2.50;;;;;;;20.71;51.87;101749.00;4999653;28;20091;-85
2021/06/25 10:28:47;;;;;;;3.90;2.30;;;;;;;20.42;56.02;101748.03;5015432;28;20040;-84
2021/06/25 10:31:15;;;;;;;2.20;1.80;;;;;;;20.49;56.42;101732.13;5004274;28;20120;-82
2021/06/25 10:33:43;;;;;;;2.67;2.47;;;;;;;21.07;51.35;101741.97;5030707;28;20048;-84
2021/06/25 10:36:14;;;;;;;4.00;3.10;;;;;;;21.73;47.77;101747.00;5022710;28;20029;-86
2021/06/25 10:38:45;;;;;;;5.05;3.10;;;;;;;22.36;49.02;101744.25;5015279;28;20033;-86
2021/06/25 10:41:13;;;;;;;3.63;2.85;;;;;;;22.99;48.10;101743.13;5015872;28;20041;-83
2021/06/25 10:43:50;;;;;;;4.07;3.22;;;;;;;22.08;46.39;101744.31;5033318;28;20060;-81
2021/06/25 10:46:34;;;;;;;3.20;2.90;;;;;;;21.20;53.21;101747.41;5021927;28;20037;-83
2021/06/25 10:49:03;;;;;;;3.75;2.70;;;;;;;20.68;58.37;101745.88;4997789;28;20071;-82
2021/06/25 10:51:32;;;;;;;6.38;2.80;;;;;;;21.34;54.76;101753.66;5005963;28;20068;-84
2021/06/25 10:54:20;;;;;;;5.13;3.30;;;;;;;22.05;47.53;101740.19;4996843;28;20068;-83
2021/06/25 10:56:49;;;;;;;3.97;3.33;;;;;;;22.25;47.93;101751.00;4980771;28;20504;-83
2021/06/25 10:59:19;;;;;;;4.60;4.20;;;;;;;22.54;42.74;101741.00;4996808;28;20057;-82
2021/06/25 11:01:47;;;;;;;5.40;3.20;;;;;;;22.32;45.41;101742.97;5014094;28;20033;-85
2021/06/25 11:04:35;;;;;;;4.90;2.78;;;;;;;22.84;44.24;101741.47;5020479;28;20043;-80
2021/06/25 11:07:05;;;;;;;3.53;2.40;;;;;;;23.07;44.61;101737.59;4994219;28;20123;-81
2021/06/25 11:09:51;;;;;;;4.53;3.08;;;;;;;23.24;43.28;101732.66;5002238;28;20049;-78
2021/06/25 11:12:21;;;;;;;3.10;2.70;;;;;;;23.21;44.21;101730.41;5021235;28;20049;-80
2021/06/25 11:14:49;;;;;;;4.45;2.90;;;;;;;23.48;43.19;101733.88;5041760;28;20041;-80
2021/06/25 11:17:53;;;;;;;7.20;2.92;;;;;;;23.78;42.07;101728.88;5046868;28;20037;-81
2021/06/25 11:20:34;;;;;;;4.32;3.45;;;;;;;23.69;39.11;101733.63;5026240;28;20048;-78
2021/06/25 11:23:11;;;;;;;5.50;3.42;;;;;;;22.75;42.02;101734.66;4981941;28;20087;-81
2021/06/25 11:25:58;;;;;;;4.13;3.30;;;;;;;22.86;41.84;101734.06;5008024;28;20072;-79
2021/06/25 11:28:30;;;;;;;4.43;3.95;;;;;;;22.34;42.93;101730.28;5048446;28;20057;-82
2021/06/25 11:31:14;;;;;;;4.13;3.72;;;;;;;22.03;45.21;101728.06;5016772;28;20049;-85
2021/06/25 11:33:53;;;;;;;6.40;4.20;;;;;;;21.92;45.13;101732.09;5022894;28;20041;-85
2021/06/25 11:36:23;;;;;;;7.95;4.30;;;;;;;22.13;44.76;101734.69;4999477;28;20424;-88
2021/06/25 11:38:52;;;;;;;6.20;3.78;;;;;;;22.25;47.38;101726.09;5003605;28;20049;-87